createdAt,value
2018-01-07T00:02:02.141Z,1.91
2018-01-07T00:04:29.727Z,1.93
2018-01-07T00:06:57.341Z,1.99
2018-01-07T00:09:24.892Z,2.00
2018-01-07T00:11:52.482Z,1.93
2018-01-07T00:14:20.064Z,1.92
2018-01-07T00:16:47.641Z,1.95
2018-01-07T00:19:15.197Z,2.00
2018-01-07T00:21:42.832Z,1.89
2018-01-07T00:24:10.492Z,1.73
2018-01-07T00:26:38.054Z,1.68
2018-01-07T00:29:05.821Z,1.61
2018-01-07T00:31:33.380Z,1.55
2018-01-07T00:34:00.972Z,1.54
2018-01-07T00:36:28.591Z,1.52
2018-01-07T00:38:56.130Z,1.58
2018-01-07T00:41:23.732Z,1.65
2018-01-07T00:43:51.324Z,1.66
2018-01-07T00:46:18.891Z,1.61
2018-01-07T00:48:46.503Z,1.59
2018-01-07T00:51:14.373Z,1.53
2018-01-07T00:53:41.919Z,1.53
2018-01-07T00:56:09.509Z,1.58
2018-01-07T00:58:37.115Z,1.63
2018-01-07T01:01:04.707Z,1.62
2018-01-07T01:03:32.595Z,1.61
2018-01-07T01:06:00.217Z,1.47
2018-01-07T01:08:27.802Z,1.37
2018-01-07T01:10:55.402Z,1.34
2018-01-07T01:13:22.993Z,1.40
2018-01-07T01:21:31.508Z,1.27
2018-01-07T01:23:59.118Z,1.22
2018-01-07T01:26:26.679Z,1.24
2018-01-07T01:28:54.277Z,1.32
2018-01-07T01:31:21.843Z,1.33
2018-01-07T01:33:49.633Z,1.39
2018-01-07T01:36:17.199Z,1.43
2018-01-07T01:38:44.766Z,1.40
2018-01-07T01:41:12.815Z,1.37
2018-01-07T01:43:40.397Z,1.29
2018-01-07T01:46:07.971Z,1.27
2018-01-07T01:48:35.591Z,1.27
2018-01-07T01:51:03.234Z,1.24
2018-01-07T01:53:30.822Z,1.18
2018-01-07T01:55:58.417Z,1.21
2018-01-07T01:58:26.005Z,1.14
2018-01-07T02:00:53.663Z,1.25
2018-01-07T02:03:21.253Z,1.42
2018-01-07T02:05:48.813Z,1.45
2018-01-07T02:08:16.410Z,1.48
2018-01-07T02:10:44.038Z,1.48
2018-01-07T02:13:11.966Z,1.47
2018-01-07T02:15:39.522Z,1.41
2018-01-07T02:18:07.145Z,1.29
2018-01-07T02:20:34.727Z,1.27
2018-01-07T02:23:02.377Z,1.21
2018-01-07T02:25:29.953Z,1.11
2018-01-07T02:27:57.550Z,1.00
2018-01-07T02:30:25.162Z,0.79
2018-01-07T02:32:52.721Z,0.67
2018-01-07T02:35:20.621Z,0.63
2018-01-07T02:37:48.222Z,0.58
2018-01-07T02:40:15.842Z,0.46
2018-01-07T02:42:43.445Z,0.40
2018-01-07T02:45:11.450Z,0.35
2018-01-07T02:47:39.896Z,0.30
2018-01-07T02:50:07.514Z,0.16
2018-01-07T02:52:35.445Z,0.16
2018-01-07T02:55:03.484Z,0.09
2018-01-07T02:57:31.402Z,-0.03
2018-01-07T02:59:59.383Z,-0.02
2018-01-07T03:02:26.942Z,0.17
2018-01-07T03:04:54.555Z,0.46
2018-01-07T03:07:22.564Z,0.54
2018-01-07T03:09:50.126Z,0.60
2018-01-07T03:12:17.700Z,0.47
2018-01-07T03:14:45.389Z,0.35
2018-01-07T03:17:13.458Z,0.14
2018-01-07T03:19:40.996Z,0.18
2018-01-07T03:22:08.635Z,0.36
2018-01-07T03:24:36.178Z,0.72
2018-01-07T03:27:04.473Z,1.01
2018-01-07T03:29:32.109Z,1.13
2018-01-07T03:31:59.795Z,1.34
2018-01-07T03:34:27.611Z,1.59
2018-01-07T03:36:56.662Z,1.69
2018-01-07T03:39:24.259Z,1.74
2018-01-07T03:41:51.811Z,1.72
2018-01-07T03:44:19.388Z,1.83
2018-01-07T03:46:46.981Z,1.69
2018-01-07T03:49:14.864Z,1.51
2018-01-07T03:51:42.454Z,1.42
2018-01-07T03:54:10.028Z,1.23
2018-01-07T03:56:37.602Z,1.12
2018-01-07T03:59:05.208Z,0.96
2018-01-07T04:01:32.765Z,1.05
2018-01-07T04:04:00.305Z,1.02
2018-01-07T04:06:27.938Z,1.06
2018-01-07T04:08:55.478Z,1.16
2018-01-07T04:11:23.061Z,1.10
2018-01-07T04:13:50.672Z,0.95
2018-01-07T04:16:18.233Z,0.84
2018-01-07T04:18:45.793Z,0.73
2018-01-07T04:21:13.383Z,0.69
2018-01-07T04:23:40.987Z,0.68
2018-01-07T04:26:08.558Z,0.72
2018-01-07T04:28:36.126Z,0.87
2018-01-07T04:31:03.710Z,0.97
2018-01-07T04:33:31.772Z,1.00
2018-01-07T04:35:59.567Z,0.96
2018-01-07T04:38:27.109Z,1.05
2018-01-07T04:40:54.664Z,1.12
2018-01-07T04:43:22.240Z,1.18
2018-01-07T04:45:49.821Z,1.23
2018-01-07T04:48:17.395Z,1.25
2018-01-07T04:50:45.015Z,1.26
2018-01-07T04:53:12.566Z,1.33
2018-01-07T04:55:40.158Z,1.38
2018-01-07T04:58:07.802Z,1.39
2018-01-07T05:00:35.380Z,1.49
2018-01-07T05:03:02.959Z,1.54
2018-01-07T05:05:30.537Z,1.66
2018-01-07T05:07:58.098Z,1.66
2018-01-07T05:10:25.660Z,1.69
2018-01-07T05:12:53.315Z,1.77
2018-01-07T05:15:20.868Z,1.83
2018-01-07T05:17:48.434Z,1.86
2018-01-07T05:20:16.054Z,1.90
2018-01-07T05:22:43.625Z,1.97
2018-01-07T05:25:11.670Z,2.07
2018-01-07T05:27:39.300Z,2.11
2018-01-07T05:30:06.879Z,2.21
2018-01-07T05:32:34.453Z,2.22
2018-01-07T05:35:02.055Z,2.24
2018-01-07T05:37:29.887Z,2.28
2018-01-07T05:39:57.452Z,2.35
2018-01-07T05:42:25.766Z,2.39
2018-01-07T05:44:53.329Z,2.47
2018-01-07T05:47:20.880Z,2.56
2018-01-07T05:49:48.450Z,2.62
2018-01-07T05:52:16.160Z,2.59
2018-01-07T05:57:15.471Z,2.73
2018-01-07T05:59:43.038Z,2.77
2018-01-07T06:02:10.588Z,2.83
2018-01-07T06:04:38.145Z,2.87
2018-01-07T06:07:05.745Z,2.92
2018-01-07T06:09:33.783Z,2.98
2018-01-07T06:12:01.357Z,2.96
2018-01-07T06:14:28.913Z,3.02
2018-01-07T06:16:56.470Z,3.05
2018-01-07T06:19:24.114Z,3.06
2018-01-07T06:21:51.671Z,3.15
2018-01-07T06:24:19.225Z,3.22
2018-01-07T06:26:46.842Z,3.24
2018-01-07T06:29:14.409Z,3.25
2018-01-07T06:31:41.977Z,3.27
2018-01-07T06:34:09.625Z,3.30
2018-01-07T06:36:37.220Z,3.31
2018-01-07T06:39:04.829Z,3.41
2018-01-07T06:41:47.786Z,3.49
2018-01-07T06:44:15.362Z,3.54
2018-01-07T06:46:42.937Z,3.58
2018-01-07T06:49:10.818Z,3.58
2018-01-07T06:51:38.407Z,3.61
2018-01-07T06:54:06.063Z,3.70
2018-01-07T06:56:33.649Z,3.80
2018-01-07T06:59:01.204Z,3.86
2018-01-07T07:01:30.868Z,3.89
2018-01-07T07:03:59.067Z,3.90
2018-01-07T07:06:26.895Z,3.91
2018-01-07T07:08:54.494Z,3.93
2018-01-07T07:11:22.071Z,4.01
2018-01-07T07:13:49.815Z,4.18
2018-01-07T07:16:17.415Z,4.23
2018-01-07T07:18:45.046Z,4.21
2018-01-07T07:21:14.810Z,4.23
2018-01-07T07:23:42.384Z,4.45
2018-01-07T07:26:09.960Z,4.57
2018-01-07T07:28:37.521Z,4.67
2018-01-07T07:31:05.114Z,4.80
2018-01-07T07:33:32.709Z,4.86
2018-01-07T07:36:01.805Z,4.87
2018-01-07T07:38:29.403Z,4.97
2018-01-07T07:40:56.987Z,4.91
2018-01-07T07:43:24.584Z,5.06
2018-01-07T07:45:52.124Z,5.13
2018-01-07T07:48:19.820Z,5.00
2018-01-07T07:50:47.806Z,5.09
2018-01-07T07:53:15.572Z,5.19
2018-01-07T07:55:43.133Z,5.15
2018-01-07T07:58:10.700Z,5.16
2018-01-07T08:00:38.253Z,5.08
2018-01-07T08:03:05.815Z,5.09
2018-01-07T08:05:33.384Z,5.05
2018-01-07T08:08:00.968Z,5.10
2018-01-07T08:10:28.546Z,5.21
2018-01-07T08:12:56.127Z,5.18
2018-01-07T08:15:23.700Z,5.21
2018-01-07T08:17:51.274Z,5.28
2018-01-07T08:20:18.873Z,5.52
2018-01-07T08:22:46.416Z,5.65
2018-01-07T08:25:13.961Z,5.72
2018-01-07T08:27:41.581Z,5.79
2018-01-07T08:30:09.164Z,5.76
2018-01-07T08:32:36.750Z,5.94
2018-01-07T08:35:04.340Z,5.95
2018-01-07T08:37:31.915Z,5.92
2018-01-07T08:39:59.503Z,5.93
2018-01-07T08:42:27.071Z,5.92
2018-01-07T08:44:54.667Z,5.97
2018-01-07T08:47:22.334Z,6.00
2018-01-07T08:49:50.487Z,6.01
2018-01-07T08:52:18.048Z,6.10
2018-01-07T08:54:45.603Z,6.31
2018-01-07T08:57:13.208Z,6.20
2018-01-07T08:59:40.769Z,6.26
2018-01-07T09:02:08.453Z,6.28
2018-01-07T09:04:36.065Z,6.31
2018-01-07T09:07:03.621Z,6.44
2018-01-07T09:09:32.220Z,6.60
2018-01-07T09:11:59.833Z,6.88
2018-01-07T09:14:27.388Z,6.94
2018-01-07T09:16:55.020Z,7.01
2018-01-07T09:19:22.591Z,7.19
2018-01-07T09:21:50.162Z,7.35
2018-01-07T09:24:17.800Z,7.48
2018-01-07T09:26:45.367Z,7.51
2018-01-07T09:29:12.930Z,7.42
2018-01-07T09:34:30.491Z,7.93
2018-01-07T09:36:58.070Z,7.79
2018-01-07T09:39:25.676Z,7.88
2018-01-07T09:41:53.284Z,7.92
2018-01-07T09:44:21.097Z,8.11
2018-01-07T09:46:48.834Z,8.24
2018-01-07T09:49:16.478Z,8.30
2018-01-07T09:51:44.050Z,8.31
2018-01-07T09:54:11.621Z,8.58
2018-01-07T09:56:39.186Z,8.73
2018-01-07T09:59:06.749Z,8.71
2018-01-07T10:01:34.315Z,8.42
2018-01-07T10:04:01.922Z,8.58
2018-01-07T10:06:29.507Z,8.64
2018-01-07T10:08:57.083Z,8.68
2018-01-07T10:11:24.666Z,8.74
2018-01-07T10:13:52.261Z,8.76
2018-01-07T10:16:19.867Z,8.68
2018-01-07T10:18:48.138Z,8.53
2018-01-07T10:21:15.711Z,8.67
2018-01-07T10:23:43.262Z,8.51
2018-01-07T10:26:11.396Z,8.42
2018-01-07T10:28:39.288Z,8.74
2018-01-07T10:31:07.299Z,8.61
2018-01-07T10:33:35.938Z,8.48
2018-01-07T10:36:03.755Z,8.52
2018-01-07T10:38:31.422Z,8.80
2018-01-07T10:40:59.046Z,8.86
2018-01-07T10:43:26.613Z,9.04
2018-01-07T10:45:54.177Z,9.09
2018-01-07T10:48:22.826Z,9.23
2018-01-07T10:50:50.382Z,9.31
2018-01-07T10:53:17.931Z,9.33
2018-01-07T10:55:45.528Z,9.43
2018-01-07T10:58:13.086Z,9.42
2018-01-07T11:00:46.187Z,9.37
2018-01-07T11:03:14.026Z,9.47
2018-01-07T11:05:52.916Z,9.52
2018-01-07T11:08:20.528Z,9.62
2018-01-07T11:10:48.129Z,9.66
2018-01-07T11:13:15.822Z,9.63
2018-01-07T11:15:43.473Z,9.56
2018-01-07T11:18:11.035Z,9.51
2018-01-07T11:20:38.594Z,9.48
2018-01-07T11:23:06.215Z,9.57
2018-01-07T11:25:33.905Z,9.56
2018-01-07T11:28:01.485Z,9.57
2018-01-07T11:30:29.183Z,9.42
2018-01-07T11:32:57.551Z,9.30
2018-01-07T11:35:25.169Z,9.12
2018-01-07T11:37:52.749Z,9.02
2018-01-07T11:40:20.319Z,9.07
2018-01-07T11:42:47.911Z,8.98
2018-01-07T11:45:15.854Z,9.05
2018-01-07T11:47:43.444Z,9.05
2018-01-07T11:50:11.001Z,9.05
2018-01-07T11:52:38.817Z,9.04
2018-01-07T11:55:07.520Z,8.97
2018-01-07T11:57:36.204Z,8.99
2018-01-07T12:00:05.049Z,9.00
2018-01-07T12:02:32.639Z,9.13
2018-01-07T12:05:00.225Z,9.09
2018-01-07T12:07:28.374Z,9.12
2018-01-07T12:09:55.975Z,9.10
2018-01-07T12:12:23.547Z,9.04
2018-01-07T12:14:51.141Z,8.95
2018-01-07T12:17:18.726Z,8.92
2018-01-07T12:19:46.308Z,8.87
2018-01-07T12:22:13.959Z,8.79
2018-01-07T12:24:41.529Z,8.63
2018-01-07T12:27:09.128Z,8.67
2018-01-07T12:29:36.731Z,8.68
2018-01-07T12:32:04.305Z,8.71
2018-01-07T12:34:31.876Z,8.69
2018-01-07T12:36:59.472Z,8.56
2018-01-07T12:42:00.804Z,8.64
2018-01-07T12:44:28.424Z,8.62
2018-01-07T12:46:56.047Z,8.64
2018-01-07T12:49:23.975Z,8.54
2018-01-07T12:51:51.554Z,8.56
2018-01-07T12:54:19.159Z,8.53
2018-01-07T12:56:46.715Z,8.60
2018-01-07T12:59:14.366Z,8.56
2018-01-07T13:01:41.965Z,8.50
2018-01-07T13:04:10.045Z,8.48
2018-01-07T13:06:37.616Z,8.40
2018-01-07T13:09:06.317Z,8.21
2018-01-07T13:11:33.952Z,8.37
2018-01-07T13:14:02.373Z,8.30
2018-01-07T13:16:33.249Z,8.29
2018-01-07T13:19:05.410Z,8.33
2018-01-07T13:21:32.991Z,8.31
2018-01-07T13:24:00.554Z,8.38
2018-01-07T13:26:28.469Z,8.39
2018-01-07T13:28:56.040Z,8.49
2018-01-07T13:31:24.092Z,8.51
2018-01-07T13:33:51.658Z,8.42
2018-01-07T13:36:19.243Z,8.43
2018-01-07T13:38:46.831Z,8.38
2018-01-07T13:41:14.800Z,8.36
2018-01-07T13:43:42.418Z,8.40
2018-01-07T13:46:10.414Z,8.31
2018-01-07T13:48:37.978Z,8.32
2018-01-07T13:51:05.818Z,8.40
2018-01-07T13:53:33.383Z,8.17
2018-01-07T13:56:00.955Z,8.27
2018-01-07T13:58:35.152Z,8.26
2018-01-07T14:01:02.750Z,8.14
2018-01-07T14:03:30.362Z,8.19
2018-01-07T14:05:57.977Z,8.24
2018-01-07T14:08:26.388Z,8.20
2018-01-07T14:10:53.965Z,8.20
2018-01-07T14:13:21.726Z,8.22
2018-01-07T14:15:49.295Z,8.20
2018-01-07T14:18:16.898Z,8.14
2018-01-07T14:20:44.689Z,8.09
2018-01-07T14:23:13.241Z,8.11
2018-01-07T14:25:41.539Z,8.09
2018-01-07T14:28:09.422Z,8.13
2018-01-07T14:30:37.060Z,8.07
2018-01-07T14:33:04.767Z,7.93
2018-01-07T14:35:32.942Z,7.93
2018-01-07T14:38:00.584Z,8.00
2018-01-07T14:40:28.280Z,7.92
2018-01-07T14:42:55.942Z,7.98
2018-01-07T14:45:23.688Z,7.98
2018-01-07T14:47:51.454Z,8.01
2018-01-07T14:50:19.084Z,8.01
2018-01-07T14:53:03.574Z,7.89
2018-01-07T14:55:31.164Z,7.74
2018-01-07T14:57:58.788Z,7.79
2018-01-07T15:00:26.589Z,7.78
2018-01-07T15:02:54.611Z,7.72
2018-01-07T15:05:22.274Z,7.66
2018-01-07T15:07:49.945Z,7.61
2018-01-07T15:10:17.802Z,7.55
2018-01-07T15:12:45.496Z,7.55
2018-01-07T15:15:13.748Z,7.50
2018-01-07T15:17:41.425Z,7.52
2018-01-07T15:20:09.037Z,7.57
2018-01-07T15:22:36.699Z,7.57
2018-01-07T15:25:04.270Z,7.59
2018-01-07T15:27:31.876Z,7.58
2018-01-07T15:30:00.124Z,7.65
2018-01-07T15:35:18.695Z,7.67
2018-01-07T15:37:46.287Z,7.62
2018-01-07T15:40:14.160Z,7.55
2018-01-07T15:42:43.639Z,7.41
2018-01-07T15:45:13.847Z,7.46
2018-01-07T15:47:41.605Z,7.54
2018-01-07T15:50:09.316Z,7.54
2018-01-07T15:52:37.180Z,7.51
2018-01-07T15:55:05.152Z,7.36
2018-01-07T15:57:33.033Z,7.41
2018-01-07T16:00:00.991Z,7.52
2018-01-07T16:02:29.877Z,7.49
2018-01-07T16:04:57.769Z,7.53
2018-01-07T16:07:25.757Z,7.50
2018-01-07T16:09:53.404Z,7.43
2018-01-07T16:12:21.061Z,7.38
2018-01-07T16:14:48.701Z,7.37
2018-01-07T16:17:16.284Z,7.23
2018-01-07T16:19:43.941Z,7.24
2018-01-07T16:22:11.550Z,7.12
2018-01-07T16:24:39.126Z,7.08
2018-01-07T16:27:07.469Z,7.01
2018-01-07T16:29:35.172Z,7.06
2018-01-07T16:32:02.773Z,6.97
2018-01-07T16:34:30.578Z,7.01
2018-01-07T16:36:58.185Z,6.91
2018-01-07T16:39:25.827Z,6.91
2018-01-07T16:41:53.513Z,7.01
2018-01-07T16:44:21.598Z,6.94
2018-01-07T16:46:49.220Z,7.00
2018-01-07T16:49:16.804Z,6.90
2018-01-07T16:51:44.415Z,6.89
2018-01-07T16:54:12.122Z,6.81
2018-01-07T16:56:40.352Z,6.98
2018-01-07T16:59:07.981Z,7.03
2018-01-07T17:01:35.646Z,6.98
2018-01-07T17:04:03.279Z,7.03
2018-01-07T17:06:30.896Z,6.92
2018-01-07T17:08:58.524Z,6.97
2018-01-07T17:11:26.267Z,6.97
2018-01-07T17:13:53.905Z,6.92
2018-01-07T17:16:21.573Z,6.94
2018-01-07T17:18:49.229Z,6.88
2018-01-07T17:21:16.869Z,6.84
2018-01-07T17:23:44.480Z,6.80
2018-01-07T17:26:12.201Z,6.67
2018-01-07T17:28:39.895Z,6.63
2018-01-07T17:31:07.857Z,6.60
2018-01-07T17:33:35.646Z,6.68
2018-01-07T17:36:03.492Z,6.65
2018-01-07T17:38:31.082Z,6.62
2018-01-07T17:40:58.652Z,6.63
2018-01-07T17:43:26.276Z,6.64
2018-01-07T17:45:53.876Z,6.59
2018-01-07T17:48:21.509Z,6.49
2018-01-07T17:50:49.231Z,6.46
2018-01-07T17:53:16.923Z,6.40
2018-01-07T17:55:44.671Z,6.46
2018-01-07T17:58:12.337Z,6.46
2018-01-07T18:00:39.946Z,6.40
2018-01-07T18:03:07.704Z,6.40
2018-01-07T18:05:35.966Z,6.36
2018-01-07T18:08:03.590Z,6.32
2018-01-07T18:10:31.225Z,6.38
2018-01-07T18:12:58.951Z,6.41
2018-01-07T18:15:26.709Z,6.40
2018-01-07T18:17:54.352Z,6.48
2018-01-07T18:20:22.111Z,6.40
2018-01-07T18:22:49.711Z,6.40
2018-01-07T18:25:17.315Z,6.36
2018-01-07T18:27:44.910Z,6.30
2018-01-07T18:30:12.726Z,6.31
2018-01-07T18:32:40.297Z,6.39
2018-01-07T18:35:07.990Z,6.39
2018-01-07T18:37:35.600Z,6.45
2018-01-07T18:40:03.195Z,6.43
2018-01-07T18:42:30.842Z,6.35
2018-01-07T18:44:58.426Z,6.31
2018-01-07T18:47:26.137Z,6.31
2018-01-07T18:49:53.812Z,6.32
2018-01-07T18:52:21.403Z,6.32
2018-01-07T18:54:49.025Z,6.26
2018-01-07T18:57:16.692Z,6.26
2018-01-07T18:59:44.296Z,6.27
2018-01-07T19:02:11.911Z,6.22
2018-01-07T19:04:39.616Z,6.18
2018-01-07T19:07:11.121Z,6.13
2018-01-07T19:09:38.803Z,6.10
2018-01-07T19:12:07.126Z,6.13
2018-01-07T19:14:34.966Z,6.19
2018-01-07T19:17:02.561Z,6.18
2018-01-07T19:19:30.182Z,6.18
2018-01-07T19:21:58.001Z,6.07
2018-01-07T19:24:25.608Z,6.06
2018-01-07T19:26:59.714Z,6.07
2018-01-07T19:29:36.016Z,5.97
2018-01-07T19:32:03.646Z,5.96
2018-01-07T19:34:31.259Z,5.98
2018-01-07T19:36:59.171Z,5.93
2018-01-07T19:39:27.093Z,5.91
2018-01-07T19:41:54.742Z,5.96
2018-01-07T19:44:22.340Z,5.92
2018-01-07T19:46:49.981Z,5.86
2018-01-07T19:49:17.727Z,5.89
2018-01-07T19:51:48.239Z,5.90
2018-01-07T19:54:15.949Z,5.81
2018-01-07T19:56:44.587Z,5.71
2018-01-07T19:59:12.498Z,5.69
2018-01-07T20:01:40.090Z,5.68
2018-01-07T20:04:07.712Z,5.60
2018-01-07T20:06:35.414Z,5.64
2018-01-07T20:09:03.377Z,5.68
2018-01-07T20:11:31.234Z,5.63
2018-01-07T20:13:58.863Z,5.58
2018-01-07T20:16:26.540Z,5.55
2018-01-07T20:18:54.189Z,5.59
2018-01-07T20:21:22.239Z,5.64
2018-01-07T20:23:49.926Z,5.64
2018-01-07T20:26:17.506Z,5.59
2018-01-07T20:28:45.118Z,5.55
2018-01-07T20:31:12.720Z,5.52
2018-01-07T20:33:40.378Z,5.62
2018-01-07T20:36:07.988Z,5.59
2018-01-07T20:38:35.606Z,5.54
2018-01-07T20:41:03.198Z,5.60
2018-01-07T20:43:30.844Z,5.57
2018-01-07T20:45:58.434Z,5.48
2018-01-07T20:48:26.053Z,5.53
2018-01-07T20:50:53.784Z,5.56
2018-01-07T20:53:21.617Z,5.45
2018-01-07T20:55:49.745Z,5.53
2018-01-07T20:58:17.519Z,5.44
2018-01-07T21:00:45.160Z,5.48
2018-01-07T21:03:12.744Z,5.45
2018-01-07T21:05:41.122Z,5.58
2018-01-07T21:08:10.453Z,5.56
2018-01-07T21:10:38.149Z,5.65
2018-01-07T21:13:06.555Z,5.66
2018-01-07T21:15:34.814Z,5.68
2018-01-07T21:18:02.698Z,5.57
2018-01-07T21:20:30.295Z,5.59
2018-01-07T21:22:57.892Z,5.60
2018-01-07T21:25:27.940Z,5.55
2018-01-07T21:27:55.646Z,5.54
2018-01-07T21:30:23.263Z,5.60
2018-01-07T21:32:50.903Z,5.58
2018-01-07T21:35:18.588Z,5.61
2018-01-07T21:37:46.224Z,5.63
2018-01-07T21:40:13.797Z,5.56
2018-01-07T21:42:41.381Z,5.54
2018-01-07T21:45:09.935Z,5.61
2018-01-07T21:47:37.542Z,5.63
2018-01-07T21:50:05.124Z,5.60
2018-01-07T21:52:32.717Z,5.49
2018-01-07T21:55:00.350Z,5.60
2018-01-07T21:57:27.969Z,5.53
2018-01-07T22:02:56.916Z,5.54
2018-01-07T22:05:24.485Z,5.37
2018-01-07T22:07:52.115Z,5.27
2018-01-07T22:10:19.698Z,5.28
2018-01-07T22:12:47.277Z,5.34
2018-01-07T22:15:14.900Z,5.30
2018-01-07T22:17:42.469Z,5.31
2018-01-07T22:20:10.052Z,5.31
2018-01-07T22:22:37.637Z,5.26
2018-01-07T22:25:05.448Z,5.32
2018-01-07T22:27:33.049Z,5.43
2018-01-07T22:30:00.681Z,5.44
2018-01-07T22:32:28.275Z,5.38
2018-01-07T22:34:55.837Z,5.40
2018-01-07T22:37:23.700Z,5.35
2018-01-07T22:39:51.257Z,5.34
2018-01-07T22:42:18.869Z,5.43
2018-01-07T22:44:46.521Z,5.37
2018-01-07T22:47:14.281Z,5.34
2018-01-07T22:49:41.850Z,5.29
2018-01-07T22:52:09.583Z,5.36
2018-01-07T22:54:37.307Z,5.32
2018-01-07T22:57:05.137Z,5.36
2018-01-07T22:59:32.735Z,5.32
2018-01-07T23:02:02.786Z,5.32
2018-01-07T23:04:34.703Z,5.19
2018-01-07T23:07:07.201Z,5.08
2018-01-07T23:09:35.283Z,5.06
2018-01-07T23:12:02.850Z,5.01
2018-01-07T23:14:30.483Z,4.92
2018-01-07T23:19:32.937Z,5.09
2018-01-07T23:22:00.545Z,5.09
2018-01-07T23:24:28.590Z,4.93
2018-01-07T23:26:56.157Z,5.00
2018-01-07T23:29:24.260Z,4.95
2018-01-07T23:31:51.887Z,4.98
2018-01-07T23:34:19.499Z,4.95
2018-01-07T23:36:47.080Z,4.82
2018-01-07T23:39:14.712Z,4.82
2018-01-07T23:41:42.268Z,4.76
2018-01-07T23:44:09.878Z,4.62
2018-01-07T23:46:38.144Z,4.52
2018-01-07T23:49:05.802Z,4.72
2018-01-07T23:51:35.008Z,4.64
2018-01-07T23:54:02.887Z,4.72
2018-01-07T23:56:30.617Z,4.88
2018-01-07T23:58:58.457Z,4.91
